sensor_id;sensor_type;location;lat;lon;timestamp;P1;durP1;ratioP1;P2;durP2;ratioP2
12925;SDS011;6529;50.566;9.774;2023-05-07T00:01:48;2.70;;;2.00;;
12925;SDS011;6529;50.566;9.774;2023-05-07T00:04:13;2.40;;;2.20;;
12925;SDS011;6529;50.566;9.774;2023-05-07T00:06:39;3.03;;;2.40;;
12925;SDS011;6529;50.566;9.774;2023-05-07T00:09:05;3.20;;;2.60;;
12925;SDS011;6529;50.566;9.774;2023-05-07T00:11:31;3.43;;;2.77;;
12925;SDS011;6529;50.566;9.774;2023-05-07T00:13:57;2.57;;;2.37;;
12925;SDS011;6529;50.566;9.774;2023-05-07T00:16:22;2.87;;;2.47;;
12925;SDS011;6529;50.566;9.774;2023-05-07T00:18:48;2.90;;;2.70;;
12925;SDS011;6529;50.566;9.774;2023-05-07T00:21:14;3.67;;;2.70;;
12925;SDS011;6529;50.566;9.774;2023-05-07T00:23:39;3.43;;;2.57;;
12925;SDS011;6529;50.566;9.774;2023-05-07T00:26:05;2.70;;;2.40;;
12925;SDS011;6529;50.566;9.774;2023-05-07T00:28:30;2.87;;;2.63;;
12925;SDS011;6529;50.566;9.774;2023-05-07T00:30:56;2.97;;;2.50;;
12925;SDS011;6529;50.566;9.774;2023-05-07T00:33:22;3.27;;;2.70;;
12925;SDS011;6529;50.566;9.774;2023-05-07T00:35:47;3.27;;;2.80;;
12925;SDS011;6529;50.566;9.774;2023-05-07T00:38:13;3.27;;;2.70;;
12925;SDS011;6529;50.566;9.774;2023-05-07T00:40:39;3.90;;;2.77;;
12925;SDS011;6529;50.566;9.774;2023-05-07T00:43:05;2.80;;;2.57;;
12925;SDS011;6529;50.566;9.774;2023-05-07T00:45:31;3.37;;;2.80;;
12925;SDS011;6529;50.566;9.774;2023-05-07T00:47:59;3.37;;;2.40;;
12925;SDS011;6529;50.566;9.774;2023-05-07T00:50:26;2.90;;;2.60;;
12925;SDS011;6529;50.566;9.774;2023-05-07T00:52:53;3.53;;;2.80;;
12925;SDS011;6529;50.566;9.774;2023-05-07T00:55:18;2.90;;;2.60;;
12925;SDS011;6529;50.566;9.774;2023-05-07T00:57:45;3.17;;;2.87;;
12925;SDS011;6529;50.566;9.774;2023-05-07T01:00:11;3.80;;;3.27;;
12925;SDS011;6529;50.566;9.774;2023-05-07T01:02:40;3.83;;;3.53;;
12925;SDS011;6529;50.566;9.774;2023-05-07T01:05:07;4.20;;;3.80;;
12925;SDS011;6529;50.566;9.774;2023-05-07T01:07:36;4.43;;;3.70;;
12925;SDS011;6529;50.566;9.774;2023-05-07T01:10:03;6.40;;;4.00;;
12925;SDS011;6529;50.566;9.774;2023-05-07T01:12:30;3.93;;;3.60;;
12925;SDS011;6529;50.566;9.774;2023-05-07T01:14:56;5.63;;;4.00;;
12925;SDS011;6529;50.566;9.774;2023-05-07T01:17:22;4.97;;;4.40;;
12925;SDS011;6529;50.566;9.774;2023-05-07T01:19:48;5.80;;;5.30;;
12925;SDS011;6529;50.566;9.774;2023-05-07T01:22:15;7.03;;;6.33;;
12925;SDS011;6529;50.566;9.774;2023-05-07T01:24:46;9.50;;;7.07;;
12925;SDS011;6529;50.566;9.774;2023-05-07T01:27:12;7.27;;;6.57;;
12925;SDS011;6529;50.566;9.774;2023-05-07T01:29:37;8.43;;;6.20;;
12925;SDS011;6529;50.566;9.774;2023-05-07T01:32:03;7.03;;;6.33;;
12925;SDS011;6529;50.566;9.774;2023-05-07T01:34:31;8.00;;;7.20;;
12925;SDS011;6529;50.566;9.774;2023-05-07T01:36:58;7.67;;;6.93;;
12925;SDS011;6529;50.566;9.774;2023-05-07T01:39:25;9.93;;;7.83;;
12925;SDS011;6529;50.566;9.774;2023-05-07T01:41:53;8.80;;;7.90;;
12925;SDS011;6529;50.566;9.774;2023-05-07T01:44:20;8.60;;;7.70;;
12925;SDS011;6529;50.566;9.774;2023-05-07T01:46:46;10.57;;;7.80;;
12925;SDS011;6529;50.566;9.774;2023-05-07T01:49:13;8.73;;;7.83;;
12925;SDS011;6529;50.566;9.774;2023-05-07T01:51:39;8.77;;;7.80;;
12925;SDS011;6529;50.566;9.774;2023-05-07T01:54:05;11.67;;;8.87;;
12925;SDS011;6529;50.566;9.774;2023-05-07T01:56:31;11.00;;;9.10;;
12925;SDS011;6529;50.566;9.774;2023-05-07T01:58:57;9.23;;;8.30;;
12925;SDS011;6529;50.566;9.774;2023-05-07T02:01:22;10.20;;;9.07;;
12925;SDS011;6529;50.566;9.774;2023-05-07T02:03:48;10.80;;;9.70;;
12925;SDS011;6529;50.566;9.774;2023-05-07T02:06:14;10.67;;;8.93;;
12925;SDS011;6529;50.566;9.774;2023-05-07T02:08:40;9.83;;;8.83;;
12925;SDS011;6529;50.566;9.774;2023-05-07T02:11:05;10.87;;;9.27;;
12925;SDS011;6529;50.566;9.774;2023-05-07T02:13:32;10.67;;;9.57;;
12925;SDS011;6529;50.566;9.774;2023-05-07T02:15:58;11.23;;;9.67;;
12925;SDS011;6529;50.566;9.774;2023-05-07T02:18:24;14.80;;;10.23;;
12925;SDS011;6529;50.566;9.774;2023-05-07T02:20:49;12.07;;;10.60;;
12925;SDS011;6529;50.566;9.774;2023-05-07T02:23:15;12.67;;;11.37;;
12925;SDS011;6529;50.566;9.774;2023-05-07T02:25:40;12.50;;;10.90;;
12925;SDS011;6529;50.566;9.774;2023-05-07T02:28:06;12.00;;;10.40;;
12925;SDS011;6529;50.566;9.774;2023-05-07T02:30:32;13.00;;;11.17;;
12925;SDS011;6529;50.566;9.774;2023-05-07T02:32:58;12.03;;;10.77;;
12925;SDS011;6529;50.566;9.774;2023-05-07T02:35:26;11.27;;;10.00;;
12925;SDS011;6529;50.566;9.774;2023-05-07T02:37:52;11.60;;;10.20;;
12925;SDS011;6529;50.566;9.774;2023-05-07T02:40:17;11.87;;;10.60;;
12925;SDS011;6529;50.566;9.774;2023-05-07T02:42:43;10.53;;;9.40;;
12925;SDS011;6529;50.566;9.774;2023-05-07T02:45:08;9.87;;;8.77;;
12925;SDS011;6529;50.566;9.774;2023-05-07T02:47:34;10.27;;;9.20;;
12925;SDS011;6529;50.566;9.774;2023-05-07T02:50:00;13.10;;;11.20;;
12925;SDS011;6529;50.566;9.774;2023-05-07T02:52:26;13.60;;;11.20;;
12925;SDS011;6529;50.566;9.774;2023-05-07T02:54:51;12.57;;;11.23;;
12925;SDS011;6529;50.566;9.774;2023-05-07T02:57:17;12.43;;;11.13;;
12925;SDS011;6529;50.566;9.774;2023-05-07T02:59:42;11.77;;;10.53;;
12925;SDS011;6529;50.566;9.774;2023-05-07T03:02:08;13.03;;;11.43;;
12925;SDS011;6529;50.566;9.774;2023-05-07T03:04:34;12.17;;;10.90;;
12925;SDS011;6529;50.566;9.774;2023-05-07T03:07:00;11.60;;;10.40;;
12925;SDS011;6529;50.566;9.774;2023-05-07T03:09:25;13.17;;;11.50;;
12925;SDS011;6529;50.566;9.774;2023-05-07T03:11:51;13.80;;;12.40;;
12925;SDS011;6529;50.566;9.774;2023-05-07T03:14:17;14.47;;;12.03;;
12925;SDS011;6529;50.566;9.774;2023-05-07T03:16:42;13.90;;;12.33;;
12925;SDS011;6529;50.566;9.774;2023-05-07T03:19:08;14.17;;;12.67;;
12925;SDS011;6529;50.566;9.774;2023-05-07T03:21:33;13.17;;;11.77;;
12925;SDS011;6529;50.566;9.774;2023-05-07T03:23:59;13.17;;;11.77;;
12925;SDS011;6529;50.566;9.774;2023-05-07T03:26:25;14.47;;;12.97;;
12925;SDS011;6529;50.566;9.774;2023-05-07T03:28:50;15.03;;;12.40;;
12925;SDS011;6529;50.566;9.774;2023-05-07T03:31:16;15.53;;;12.67;;
12925;SDS011;6529;50.566;9.774;2023-05-07T03:33:55;14.37;;;12.87;;
12925;SDS011;6529;50.566;9.774;2023-05-07T03:36:22;15.73;;;13.27;;
12925;SDS011;6529;50.566;9.774;2023-05-07T03:38:48;13.37;;;11.90;;
12925;SDS011;6529;50.566;9.774;2023-05-07T03:41:14;13.63;;;12.00;;
12925;SDS011;6529;50.566;9.774;2023-05-07T03:43:40;15.40;;;13.07;;
12925;SDS011;6529;50.566;9.774;2023-05-07T03:46:06;15.13;;;13.23;;
12925;SDS011;6529;50.566;9.774;2023-05-07T03:48:32;15.70;;;13.40;;
12925;SDS011;6529;50.566;9.774;2023-05-07T03:50:58;15.63;;;12.77;;
12925;SDS011;6529;50.566;9.774;2023-05-07T03:53:23;15.10;;;12.37;;
12925;SDS011;6529;50.566;9.774;2023-05-07T03:55:49;15.17;;;12.70;;
12925;SDS011;6529;50.566;9.774;2023-05-07T03:58:15;16.20;;;12.97;;
12925;SDS011;6529;50.566;9.774;2023-05-07T04:00:40;15.80;;;13.33;;
12925;SDS011;6529;50.566;9.774;2023-05-07T04:03:07;15.67;;;13.47;;
12925;SDS011;6529;50.566;9.774;2023-05-07T04:05:32;15.77;;;13.40;;
12925;SDS011;6529;50.566;9.774;2023-05-07T04:07:58;15.47;;;13.27;;
12925;SDS011;6529;50.566;9.774;2023-05-07T04:10:24;15.80;;;12.93;;
12925;SDS011;6529;50.566;9.774;2023-05-07T04:12:50;15.70;;;13.93;;
12925;SDS011;6529;50.566;9.774;2023-05-07T04:15:15;16.40;;;13.90;;
12925;SDS011;6529;50.566;9.774;2023-05-07T04:17:41;16.30;;;13.20;;
12925;SDS011;6529;50.566;9.774;2023-05-07T04:20:10;14.87;;;13.20;;
12925;SDS011;6529;50.566;9.774;2023-05-07T04:22:39;16.03;;;13.63;;
12925;SDS011;6529;50.566;9.774;2023-05-07T04:25:05;17.27;;;13.33;;
12925;SDS011;6529;50.566;9.774;2023-05-07T04:27:31;14.77;;;12.63;;
12925;SDS011;6529;50.566;9.774;2023-05-07T04:29:57;15.60;;;13.63;;
12925;SDS011;6529;50.566;9.774;2023-05-07T04:32:23;18.10;;;14.37;;
12925;SDS011;6529;50.566;9.774;2023-05-07T04:34:49;16.27;;;13.47;;
12925;SDS011;6529;50.566;9.774;2023-05-07T04:37:15;16.50;;;14.77;;
12925;SDS011;6529;50.566;9.774;2023-05-07T04:39:41;16.60;;;14.53;;
12925;SDS011;6529;50.566;9.774;2023-05-07T04:42:06;18.77;;;14.70;;
12925;SDS011;6529;50.566;9.774;2023-05-07T04:44:33;17.07;;;14.50;;
12925;SDS011;6529;50.566;9.774;2023-05-07T04:47:00;15.90;;;13.17;;
12925;SDS011;6529;50.566;9.774;2023-05-07T04:49:25;16.37;;;13.77;;
12925;SDS011;6529;50.566;9.774;2023-05-07T04:51:51;17.17;;;14.33;;
12925;SDS011;6529;50.566;9.774;2023-05-07T04:54:17;19.27;;;15.03;;
12925;SDS011;6529;50.566;9.774;2023-05-07T04:56:42;17.73;;;15.00;;
12925;SDS011;6529;50.566;9.774;2023-05-07T04:59:08;17.63;;;15.03;;
12925;SDS011;6529;50.566;9.774;2023-05-07T05:01:33;18.37;;;14.80;;
12925;SDS011;6529;50.566;9.774;2023-05-07T05:03:59;18.37;;;15.40;;
12925;SDS011;6529;50.566;9.774;2023-05-07T05:06:25;19.43;;;15.50;;
12925;SDS011;6529;50.566;9.774;2023-05-07T05:08:50;18.03;;;15.07;;
12925;SDS011;6529;50.566;9.774;2023-05-07T05:11:16;19.33;;;15.40;;
12925;SDS011;6529;50.566;9.774;2023-05-07T05:13:42;18.77;;;15.13;;
12925;SDS011;6529;50.566;9.774;2023-05-07T05:16:07;19.27;;;15.23;;
12925;SDS011;6529;50.566;9.774;2023-05-07T05:18:33;20.40;;;15.93;;
12925;SDS011;6529;50.566;9.774;2023-05-07T05:20:58;19.20;;;14.97;;
12925;SDS011;6529;50.566;9.774;2023-05-07T05:23:24;19.07;;;15.60;;
12925;SDS011;6529;50.566;9.774;2023-05-07T05:25:49;20.47;;;15.27;;
12925;SDS011;6529;50.566;9.774;2023-05-07T05:28:20;18.00;;;15.33;;
12925;SDS011;6529;50.566;9.774;2023-05-07T05:30:45;18.90;;;15.23;;
12925;SDS011;6529;50.566;9.774;2023-05-07T05:33:11;16.87;;;14.77;;
12925;SDS011;6529;50.566;9.774;2023-05-07T05:35:36;19.33;;;14.57;;
12925;SDS011;6529;50.566;9.774;2023-05-07T05:38:02;17.60;;;14.10;;
12925;SDS011;6529;50.566;9.774;2023-05-07T05:40:28;18.13;;;14.37;;
12925;SDS011;6529;50.566;9.774;2023-05-07T05:42:53;19.00;;;14.80;;
12925;SDS011;6529;50.566;9.774;2023-05-07T05:45:19;17.83;;;14.27;;
12925;SDS011;6529;50.566;9.774;2023-05-07T05:47:45;18.50;;;14.53;;
12925;SDS011;6529;50.566;9.774;2023-05-07T05:50:10;19.93;;;14.60;;
12925;SDS011;6529;50.566;9.774;2023-05-07T05:52:36;16.57;;;14.20;;
12925;SDS011;6529;50.566;9.774;2023-05-07T05:55:01;18.30;;;14.33;;
12925;SDS011;6529;50.566;9.774;2023-05-07T05:57:27;18.20;;;13.60;;
12925;SDS011;6529;50.566;9.774;2023-05-07T05:59:52;18.90;;;14.80;;
12925;SDS011;6529;50.566;9.774;2023-05-07T06:02:18;18.13;;;14.23;;
12925;SDS011;6529;50.566;9.774;2023-05-07T06:04:44;18.03;;;14.23;;
12925;SDS011;6529;50.566;9.774;2023-05-07T06:07:10;18.03;;;14.07;;
12925;SDS011;6529;50.566;9.774;2023-05-07T06:09:36;16.67;;;13.80;;
12925;SDS011;6529;50.566;9.774;2023-05-07T06:12:02;18.10;;;14.57;;
12925;SDS011;6529;50.566;9.774;2023-05-07T06:14:27;16.37;;;13.43;;
12925;SDS011;6529;50.566;9.774;2023-05-07T06:16:53;17.00;;;13.63;;
12925;SDS011;6529;50.566;9.774;2023-05-07T06:19:18;18.10;;;13.77;;
12925;SDS011;6529;50.566;9.774;2023-05-07T06:21:48;16.87;;;13.53;;
12925;SDS011;6529;50.566;9.774;2023-05-07T06:24:13;15.70;;;13.27;;
12925;SDS011;6529;50.566;9.774;2023-05-07T06:26:39;17.83;;;13.50;;
12925;SDS011;6529;50.566;9.774;2023-05-07T06:29:05;16.80;;;13.47;;
12925;SDS011;6529;50.566;9.774;2023-05-07T06:31:31;16.30;;;12.87;;
12925;SDS011;6529;50.566;9.774;2023-05-07T06:33:57;16.60;;;13.43;;
12925;SDS011;6529;50.566;9.774;2023-05-07T06:36:23;15.60;;;12.50;;
12925;SDS011;6529;50.566;9.774;2023-05-07T06:38:49;17.90;;;12.77;;
12925;SDS011;6529;50.566;9.774;2023-05-07T06:41:14;16.40;;;12.33;;
12925;SDS011;6529;50.566;9.774;2023-05-07T06:43:40;14.87;;;12.77;;
12925;SDS011;6529;50.566;9.774;2023-05-07T06:46:06;15.57;;;12.60;;
12925;SDS011;6529;50.566;9.774;2023-05-07T06:48:31;15.50;;;12.63;;
12925;SDS011;6529;50.566;9.774;2023-05-07T06:50:57;12.27;;;10.37;;
12925;SDS011;6529;50.566;9.774;2023-05-07T06:53:23;13.57;;;10.90;;
12925;SDS011;6529;50.566;9.774;2023-05-07T06:55:49;15.37;;;11.93;;
12925;SDS011;6529;50.566;9.774;2023-05-07T06:58:14;13.77;;;10.50;;
12925;SDS011;6529;50.566;9.774;2023-05-07T07:00:40;12.80;;;10.10;;
12925;SDS011;6529;50.566;9.774;2023-05-07T07:03:06;12.13;;;10.30;;
12925;SDS011;6529;50.566;9.774;2023-05-07T07:05:31;12.00;;;9.70;;
12925;SDS011;6529;50.566;9.774;2023-05-07T07:07:57;11.07;;;9.23;;
12925;SDS011;6529;50.566;9.774;2023-05-07T07:10:23;11.00;;;9.30;;
12925;SDS011;6529;50.566;9.774;2023-05-07T07:12:49;11.37;;;9.30;;
12925;SDS011;6529;50.566;9.774;2023-05-07T07:15:15;10.57;;;8.77;;
12925;SDS011;6529;50.566;9.774;2023-05-07T07:17:41;12.20;;;9.97;;
12925;SDS011;6529;50.566;9.774;2023-05-07T07:20:07;11.63;;;9.50;;
12925;SDS011;6529;50.566;9.774;2023-05-07T07:22:33;11.97;;;10.17;;
12925;SDS011;6529;50.566;9.774;2023-05-07T07:24:58;12.20;;;10.90;;
12925;SDS011;6529;50.566;9.774;2023-05-07T07:27:24;11.90;;;9.83;;
12925;SDS011;6529;50.566;9.774;2023-05-07T07:29:50;14.30;;;11.20;;
12925;SDS011;6529;50.566;9.774;2023-05-07T07:32:15;13.83;;;10.93;;
12925;SDS011;6529;50.566;9.774;2023-05-07T07:34:41;15.20;;;11.50;;
12925;SDS011;6529;50.566;9.774;2023-05-07T07:37:07;13.97;;;11.03;;
12925;SDS011;6529;50.566;9.774;2023-05-07T07:39:32;14.27;;;10.73;;
12925;SDS011;6529;50.566;9.774;2023-05-07T07:41:58;13.27;;;10.80;;
12925;SDS011;6529;50.566;9.774;2023-05-07T07:44:24;13.83;;;10.47;;
12925;SDS011;6529;50.566;9.774;2023-05-07T07:46:50;12.67;;;9.90;;
12925;SDS011;6529;50.566;9.774;2023-05-07T07:49:16;12.00;;;9.03;;
12925;SDS011;6529;50.566;9.774;2023-05-07T07:51:42;12.27;;;8.87;;
12925;SDS011;6529;50.566;9.774;2023-05-07T07:54:07;10.70;;;8.93;;
12925;SDS011;6529;50.566;9.774;2023-05-07T07:56:33;9.63;;;8.60;;
12925;SDS011;6529;50.566;9.774;2023-05-07T07:58:59;9.63;;;8.43;;
12925;SDS011;6529;50.566;9.774;2023-05-07T08:01:25;12.83;;;9.50;;
12925;SDS011;6529;50.566;9.774;2023-05-07T08:03:51;11.23;;;9.27;;
12925;SDS011;6529;50.566;9.774;2023-05-07T08:06:17;8.87;;;7.80;;
12925;SDS011;6529;50.566;9.774;2023-05-07T08:08:42;10.67;;;8.33;;
12925;SDS011;6529;50.566;9.774;2023-05-07T08:11:08;9.73;;;8.53;;
12925;SDS011;6529;50.566;9.774;2023-05-07T08:13:34;8.73;;;7.83;;
12925;SDS011;6529;50.566;9.774;2023-05-07T08:16:00;10.70;;;8.30;;
12925;SDS011;6529;50.566;9.774;2023-05-07T08:18:25;10.27;;;9.13;;
12925;SDS011;6529;50.566;9.774;2023-05-07T08:20:53;10.57;;;7.77;;
12925;SDS011;6529;50.566;9.774;2023-05-07T08:23:19;10.33;;;8.13;;
12925;SDS011;6529;50.566;9.774;2023-05-07T08:25:44;9.40;;;7.47;;
12925;SDS011;6529;50.566;9.774;2023-05-07T08:28:10;8.00;;;6.83;;
12925;SDS011;6529;50.566;9.774;2023-05-07T08:30:36;8.07;;;7.20;;
12925;SDS011;6529;50.566;9.774;2023-05-07T08:33:01;7.27;;;6.50;;
12925;SDS011;6529;50.566;9.774;2023-05-07T08:35:27;10.37;;;9.07;;
12925;SDS011;6529;50.566;9.774;2023-05-07T08:37:53;8.47;;;7.50;;
12925;SDS011;6529;50.566;9.774;2023-05-07T08:40:19;10.33;;;8.47;;
12925;SDS011;6529;50.566;9.774;2023-05-07T08:42:48;10.27;;;8.63;;
12925;SDS011;6529;50.566;9.774;2023-05-07T08:45:15;10.13;;;7.60;;
12925;SDS011;6529;50.566;9.774;2023-05-07T08:47:46;9.30;;;8.40;;
12925;SDS011;6529;50.566;9.774;2023-05-07T08:50:15;10.13;;;8.20;;
12925;SDS011;6529;50.566;9.774;2023-05-07T08:52:41;9.67;;;8.33;;
12925;SDS011;6529;50.566;9.774;2023-05-07T08:55:07;9.70;;;8.00;;
12925;SDS011;6529;50.566;9.774;2023-05-07T08:57:33;10.13;;;7.97;;
12925;SDS011;6529;50.566;9.774;2023-05-07T08:59:59;10.17;;;7.97;;
12925;SDS011;6529;50.566;9.774;2023-05-07T09:02:25;10.67;;;8.27;;
12925;SDS011;6529;50.566;9.774;2023-05-07T09:04:50;9.87;;;8.63;;
12925;SDS011;6529;50.566;9.774;2023-05-07T09:07:17;10.87;;;8.13;;
12925;SDS011;6529;50.566;9.774;2023-05-07T09:09:44;8.20;;;7.27;;
12925;SDS011;6529;50.566;9.774;2023-05-07T09:12:11;8.93;;;7.87;;
12925;SDS011;6529;50.566;9.774;2023-05-07T09:14:36;9.30;;;7.90;;
12925;SDS011;6529;50.566;9.774;2023-05-07T09:17:02;10.23;;;7.60;;
12925;SDS011;6529;50.566;9.774;2023-05-07T09:19:28;8.27;;;7.20;;
12925;SDS011;6529;50.566;9.774;2023-05-07T09:22:01;10.03;;;7.87;;
12925;SDS011;6529;50.566;9.774;2023-05-07T09:24:28;12.30;;;7.60;;
12925;SDS011;6529;50.566;9.774;2023-05-07T09:26:58;8.57;;;7.67;;
12925;SDS011;6529;50.566;9.774;2023-05-07T09:29:25;9.53;;;8.03;;
12925;SDS011;6529;50.566;9.774;2023-05-07T09:31:51;11.03;;;8.53;;
12925;SDS011;6529;50.566;9.774;2023-05-07T09:34:16;9.97;;;7.77;;
12925;SDS011;6529;50.566;9.774;2023-05-07T09:36:42;9.60;;;7.37;;
12925;SDS011;6529;50.566;9.774;2023-05-07T09:39:07;9.43;;;7.67;;
12925;SDS011;6529;50.566;9.774;2023-05-07T09:41:33;8.17;;;7.33;;
12925;SDS011;6529;50.566;9.774;2023-05-07T09:44:09;9.83;;;7.90;;
12925;SDS011;6529;50.566;9.774;2023-05-07T09:46:34;9.00;;;7.33;;
12925;SDS011;6529;50.566;9.774;2023-05-07T09:49:03;7.53;;;6.73;;
12925;SDS011;6529;50.566;9.774;2023-05-07T09:51:43;7.90;;;6.70;;
12925;SDS011;6529;50.566;9.774;2023-05-07T09:54:13;8.63;;;7.30;;
12925;SDS011;6529;50.566;9.774;2023-05-07T09:56:39;8.90;;;7.07;;
12925;SDS011;6529;50.566;9.774;2023-05-07T09:59:08;7.50;;;6.70;;
12925;SDS011;6529;50.566;9.774;2023-05-07T10:01:37;8.83;;;6.90;;
12925;SDS011;6529;50.566;9.774;2023-05-07T10:04:04;7.93;;;6.90;;
12925;SDS011;6529;50.566;9.774;2023-05-07T10:06:30;8.73;;;6.80;;
12925;SDS011;6529;50.566;9.774;2023-05-07T10:08:56;7.77;;;6.80;;
12925;SDS011;6529;50.566;9.774;2023-05-07T10:11:23;7.37;;;5.97;;
12925;SDS011;6529;50.566;9.774;2023-05-07T10:13:49;7.03;;;6.33;;
12925;SDS011;6529;50.566;9.774;2023-05-07T10:16:17;7.03;;;6.33;;
12925;SDS011;6529;50.566;9.774;2023-05-07T10:18:43;7.93;;;5.90;;
12925;SDS011;6529;50.566;9.774;2023-05-07T10:21:16;6.15;;;5.40;;
12925;SDS011;6529;50.566;9.774;2023-05-07T10:23:49;6.85;;;5.63;;
12925;SDS011;6529;50.566;9.774;2023-05-07T10:26:15;6.50;;;5.60;;
12925;SDS011;6529;50.566;9.774;2023-05-07T10:28:44;5.35;;;4.85;;
12925;SDS011;6529;50.566;9.774;2023-05-07T10:34:02;5.60;;;5.10;;
12925;SDS011;6529;50.566;9.774;2023-05-07T10:36:33;5.25;;;4.75;;
12925;SDS011;6529;50.566;9.774;2023-05-07T10:38:59;5.93;;;5.25;;
12925;SDS011;6529;50.566;9.774;2023-05-07T10:41:25;5.45;;;4.32;;
12925;SDS011;6529;50.566;9.774;2023-05-07T10:43:50;5.78;;;5.18;;
12925;SDS011;6529;50.566;9.774;2023-05-07T10:46:19;5.50;;;4.97;;
12925;SDS011;6529;50.566;9.774;2023-05-07T10:51:31;4.82;;;4.40;;
12925;SDS011;6529;50.566;9.774;2023-05-07T10:56:36;4.88;;;4.38;;
12925;SDS011;6529;50.566;9.774;2023-05-07T11:02:01;5.28;;;4.50;;
12925;SDS011;6529;50.566;9.774;2023-05-07T11:04:28;5.38;;;4.80;;
12925;SDS011;6529;50.566;9.774;2023-05-07T11:15:04;5.45;;;4.95;;
12925;SDS011;6529;50.566;9.774;2023-05-07T11:17:31;5.30;;;4.75;;
12925;SDS011;6529;50.566;9.774;2023-05-07T11:19:59;5.40;;;4.90;;
12925;SDS011;6529;50.566;9.774;2023-05-07T11:25:01;5.35;;;4.85;;
12925;SDS011;6529;50.566;9.774;2023-05-07T11:27:28;5.60;;;5.10;;
12925;SDS011;6529;50.566;9.774;2023-05-07T11:29:54;5.72;;;4.88;;
12925;SDS011;6529;50.566;9.774;2023-05-07T11:32:24;5.45;;;4.32;;
12925;SDS011;6529;50.566;9.774;2023-05-07T11:34:54;4.68;;;4.10;;
12925;SDS011;6529;50.566;9.774;2023-05-07T11:37:21;4.95;;;4.45;;
12925;SDS011;6529;50.566;9.774;2023-05-07T11:39:47;5.15;;;4.65;;
12925;SDS011;6529;50.566;9.774;2023-05-07T11:42:27;5.57;;;4.60;;
12925;SDS011;6529;50.566;9.774;2023-05-07T11:44:53;4.70;;;4.20;;
12925;SDS011;6529;50.566;9.774;2023-05-07T11:47:19;5.68;;;4.35;;
12925;SDS011;6529;50.566;9.774;2023-05-07T11:49:48;4.55;;;4.13;;
12925;SDS011;6529;50.566;9.774;2023-05-07T11:52:16;4.20;;;3.78;;
12925;SDS011;6529;50.566;9.774;2023-05-07T11:54:52;6.93;;;3.85;;
12925;SDS011;6529;50.566;9.774;2023-05-07T11:57:22;4.78;;;4.38;;
12925;SDS011;6529;50.566;9.774;2023-05-07T11:59:52;5.72;;;5.18;;
12925;SDS011;6529;50.566;9.774;2023-05-07T12:02:19;5.32;;;4.82;;
12925;SDS011;6529;50.566;9.774;2023-05-07T12:04:44;6.00;;;4.80;;
12925;SDS011;6529;50.566;9.774;2023-05-07T12:07:14;5.53;;;5.00;;
12925;SDS011;6529;50.566;9.774;2023-05-07T12:09:44;6.60;;;5.40;;
12925;SDS011;6529;50.566;9.774;2023-05-07T12:12:10;6.03;;;5.38;;
12925;SDS011;6529;50.566;9.774;2023-05-07T12:14:40;5.85;;;5.25;;
12925;SDS011;6529;50.566;9.774;2023-05-07T12:17:07;5.40;;;4.88;;
12925;SDS011;6529;50.566;9.774;2023-05-07T12:19:33;5.50;;;5.00;;
12925;SDS011;6529;50.566;9.774;2023-05-07T12:22:00;5.50;;;4.90;;
12925;SDS011;6529;50.566;9.774;2023-05-07T12:24:27;4.97;;;4.45;;
12925;SDS011;6529;50.566;9.774;2023-05-07T12:26:53;5.40;;;4.90;;
12925;SDS011;6529;50.566;9.774;2023-05-07T12:29:22;5.65;;;5.05;;
12925;SDS011;6529;50.566;9.774;2023-05-07T12:31:49;5.82;;;5.22;;
12925;SDS011;6529;50.566;9.774;2023-05-07T12:34:15;5.65;;;5.07;;
12925;SDS011;6529;50.566;9.774;2023-05-07T12:36:41;5.75;;;5.00;;
12925;SDS011;6529;50.566;9.774;2023-05-07T12:39:07;5.05;;;4.55;;
12925;SDS011;6529;50.566;9.774;2023-05-07T12:41:52;5.13;;;4.63;;
12925;SDS011;6529;50.566;9.774;2023-05-07T12:44:22;4.88;;;4.38;;
12925;SDS011;6529;50.566;9.774;2023-05-07T12:46:49;3.78;;;3.47;;
12925;SDS011;6529;50.566;9.774;2023-05-07T12:49:15;3.28;;;3.03;;
12925;SDS011;6529;50.566;9.774;2023-05-07T12:51:40;4.75;;;3.47;;
12925;SDS011;6529;50.566;9.774;2023-05-07T12:54:06;3.45;;;3.15;;
12925;SDS011;6529;50.566;9.774;2023-05-07T12:56:31;4.97;;;3.88;;
12925;SDS011;6529;50.566;9.774;2023-05-07T12:59:00;4.65;;;4.25;;
12925;SDS011;6529;50.566;9.774;2023-05-07T13:01:29;4.00;;;3.53;;
12925;SDS011;6529;50.566;9.774;2023-05-07T13:03:58;4.65;;;4.05;;
12925;SDS011;6529;50.566;9.774;2023-05-07T13:06:26;4.50;;;4.10;;
12925;SDS011;6529;50.566;9.774;2023-05-07T13:08:51;4.38;;;3.97;;
12925;SDS011;6529;50.566;9.774;2023-05-07T13:11:17;4.25;;;3.85;;
12925;SDS011;6529;50.566;9.774;2023-05-07T13:13:42;5.15;;;4.22;;
12925;SDS011;6529;50.566;9.774;2023-05-07T13:16:09;5.00;;;3.92;;
12925;SDS011;6529;50.566;9.774;2023-05-07T13:18:36;6.43;;;4.10;;
12925;SDS011;6529;50.566;9.774;2023-05-07T13:21:03;4.28;;;3.88;;
12925;SDS011;6529;50.566;9.774;2023-05-07T13:23:29;4.32;;;3.88;;
12925;SDS011;6529;50.566;9.774;2023-05-07T13:25:55;4.43;;;3.95;;
12925;SDS011;6529;50.566;9.774;2023-05-07T13:28:21;5.00;;;4.50;;
12925;SDS011;6529;50.566;9.774;2023-05-07T13:30:47;4.30;;;3.90;;
12925;SDS011;6529;50.566;9.774;2023-05-07T13:33:13;3.90;;;3.45;;
12925;SDS011;6529;50.566;9.774;2023-05-07T13:35:40;4.00;;;3.60;;
12925;SDS011;6529;50.566;9.774;2023-05-07T13:38:06;4.00;;;3.60;;
12925;SDS011;6529;50.566;9.774;2023-05-07T13:40:31;4.05;;;3.60;;
12925;SDS011;6529;50.566;9.774;2023-05-07T13:42:57;6.38;;;4.10;;
12925;SDS011;6529;50.566;9.774;2023-05-07T13:45:24;4.10;;;3.70;;
12925;SDS011;6529;50.566;9.774;2023-05-07T13:47:50;3.90;;;3.60;;
12925;SDS011;6529;50.566;9.774;2023-05-07T13:50:16;4.30;;;3.90;;
12925;SDS011;6529;50.566;9.774;2023-05-07T13:52:43;4.53;;;4.13;;
12925;SDS011;6529;50.566;9.774;2023-05-07T13:55:15;4.20;;;3.85;;
12925;SDS011;6529;50.566;9.774;2023-05-07T13:57:41;4.35;;;3.78;;
12925;SDS011;6529;50.566;9.774;2023-05-07T14:00:07;5.28;;;4.03;;
12925;SDS011;6529;50.566;9.774;2023-05-07T14:02:33;4.82;;;3.78;;
12925;SDS011;6529;50.566;9.774;2023-05-07T14:04:59;4.53;;;4.10;;
12925;SDS011;6529;50.566;9.774;2023-05-07T14:07:24;4.30;;;3.90;;
12925;SDS011;6529;50.566;9.774;2023-05-07T14:09:50;4.20;;;3.80;;
12925;SDS011;6529;50.566;9.774;2023-05-07T14:12:15;4.93;;;4.40;;
12925;SDS011;6529;50.566;9.774;2023-05-07T14:14:41;4.20;;;3.90;;
12925;SDS011;6529;50.566;9.774;2023-05-07T14:17:06;5.10;;;3.78;;
12925;SDS011;6529;50.566;9.774;2023-05-07T14:19:33;4.65;;;4.13;;
12925;SDS011;6529;50.566;9.774;2023-05-07T14:21:58;4.43;;;4.03;;
12925;SDS011;6529;50.566;9.774;2023-05-07T14:24:24;4.30;;;3.85;;
12925;SDS011;6529;50.566;9.774;2023-05-07T14:26:50;6.30;;;5.70;;
12925;SDS011;6529;50.566;9.774;2023-05-07T14:29:16;4.85;;;4.25;;
12925;SDS011;6529;50.566;9.774;2023-05-07T14:31:43;4.80;;;3.90;;
12925;SDS011;6529;50.566;9.774;2023-05-07T14:34:10;4.35;;;3.95;;
12925;SDS011;6529;50.566;9.774;2023-05-07T14:36:35;4.30;;;3.90;;
12925;SDS011;6529;50.566;9.774;2023-05-07T14:39:01;4.05;;;3.65;;
12925;SDS011;6529;50.566;9.774;2023-05-07T14:41:27;4.43;;;4.03;;
12925;SDS011;6529;50.566;9.774;2023-05-07T14:43:52;4.18;;;3.83;;
12925;SDS011;6529;50.566;9.774;2023-05-07T14:46:18;4.18;;;3.88;;
12925;SDS011;6529;50.566;9.774;2023-05-07T14:48:44;4.53;;;4.13;;
12925;SDS011;6529;50.566;9.774;2023-05-07T14:51:11;4.60;;;4.13;;
12925;SDS011;6529;50.566;9.774;2023-05-07T14:53:37;4.50;;;4.10;;
12925;SDS011;6529;50.566;9.774;2023-05-07T14:56:03;4.82;;;4.32;;
12925;SDS011;6529;50.566;9.774;2023-05-07T14:58:29;4.43;;;4.03;;
12925;SDS011;6529;50.566;9.774;2023-05-07T15:00:55;5.57;;;4.82;;
12925;SDS011;6529;50.566;9.774;2023-05-07T15:03:20;4.75;;;4.35;;
12925;SDS011;6529;50.566;9.774;2023-05-07T15:05:46;5.05;;;4.65;;
12925;SDS011;6529;50.566;9.774;2023-05-07T15:08:12;4.80;;;4.30;;